createdAt,value
2022-09-28T00:00:54.002Z,15.02
2022-09-28T00:03:20.349Z,14.95
2022-09-28T00:05:46.676Z,15.01
2022-09-28T00:08:13.014Z,15.00
2022-09-28T00:10:39.356Z,14.85
2022-09-28T00:13:05.701Z,15.05
2022-09-28T00:15:32.033Z,15.01
2022-09-28T00:17:58.369Z,14.82
2022-09-28T00:20:24.709Z,14.83
2022-09-28T00:22:51.045Z,14.88
2022-09-28T00:25:17.382Z,14.64
2022-09-28T00:27:43.705Z,14.88
2022-09-28T00:30:10.034Z,14.61
2022-09-28T00:32:36.367Z,14.53
2022-09-28T00:35:02.710Z,14.60
2022-09-28T00:37:29.071Z,14.52
2022-09-28T00:39:55.422Z,14.48
2022-09-28T00:42:21.773Z,14.50
2022-09-28T00:44:48.109Z,14.43
2022-09-28T00:47:14.440Z,14.49
2022-09-28T00:49:40.768Z,14.43
2022-09-28T00:52:07.091Z,14.51
2022-09-28T00:54:33.411Z,14.59
2022-09-28T00:56:59.740Z,14.38
2022-09-28T00:59:26.085Z,14.61
2022-09-28T01:01:52.450Z,14.42
2022-09-28T01:04:18.795Z,14.40
2022-09-28T01:06:45.129Z,14.45
2022-09-28T01:09:11.466Z,14.08
2022-09-28T01:11:37.793Z,14.13
2022-09-28T01:14:04.124Z,14.05
2022-09-28T01:16:30.606Z,14.06
2022-09-28T01:18:57.006Z,13.74
2022-09-28T01:21:23.324Z,13.84
2022-09-28T01:23:49.707Z,13.78
2022-09-28T01:26:16.067Z,13.86
2022-09-28T01:28:42.397Z,13.96
2022-09-28T01:31:08.771Z,13.81
2022-09-28T01:33:35.138Z,13.82
2022-09-28T01:36:01.476Z,13.86
2022-09-28T01:38:27.847Z,14.18
2022-09-28T01:40:54.239Z,13.98
2022-09-28T01:43:20.612Z,14.02
2022-09-28T01:45:46.981Z,13.96
2022-09-28T01:48:13.341Z,13.73
2022-09-28T01:50:39.675Z,13.83
2022-09-28T01:53:06.004Z,13.91
2022-09-28T01:55:32.334Z,13.76
2022-09-28T01:57:58.664Z,13.90
2022-09-28T02:00:24.992Z,13.86
2022-09-28T02:02:51.335Z,13.75
2022-09-28T02:05:17.670Z,13.88
2022-09-28T02:07:43.989Z,14.04
2022-09-28T02:10:10.330Z,14.26
2022-09-28T02:12:36.687Z,14.12
2022-09-28T02:15:03.054Z,14.07
2022-09-28T02:17:29.419Z,14.10
2022-09-28T02:19:55.759Z,14.24
2022-09-28T02:22:22.077Z,13.88
2022-09-28T02:24:48.408Z,13.93
2022-09-28T02:27:14.738Z,13.94
2022-09-28T02:29:41.062Z,13.59
2022-09-28T02:32:07.389Z,13.61
2022-09-28T02:34:33.724Z,13.69
2022-09-28T02:37:00.046Z,13.45
2022-09-28T02:39:26.356Z,13.81
2022-09-28T02:41:52.689Z,13.37
2022-09-28T02:44:19.003Z,13.59
2022-09-28T02:46:45.329Z,13.39
2022-09-28T02:49:21.398Z,13.45
2022-09-28T02:51:48.321Z,13.61
2022-09-28T02:54:18.633Z,13.44
2022-09-28T02:56:45.309Z,13.59
2022-09-28T02:59:11.640Z,13.34
2022-09-28T03:01:37.991Z,13.28
2022-09-28T03:04:04.332Z,13.50
2022-09-28T03:06:30.669Z,13.58
2022-09-28T03:08:57.003Z,13.52
2022-09-28T03:11:23.334Z,13.55
2022-09-28T03:13:49.665Z,13.45
2022-09-28T03:16:16.031Z,13.38
2022-09-28T03:18:42.396Z,13.77
2022-09-28T03:21:08.732Z,13.70
2022-09-28T03:23:35.056Z,13.49
2022-09-28T03:26:01.387Z,13.44
2022-09-28T03:28:27.725Z,13.45
2022-09-28T03:30:54.051Z,13.48
2022-09-28T03:33:20.391Z,13.55
2022-09-28T03:35:46.713Z,13.33
2022-09-28T03:38:13.041Z,13.49
2022-09-28T03:40:39.465Z,13.63
2022-09-28T03:43:05.809Z,13.60
2022-09-28T03:45:32.196Z,13.31
2022-09-28T03:47:58.534Z,13.32
2022-09-28T03:50:24.851Z,13.43
2022-09-28T03:52:51.168Z,13.49
2022-09-28T03:55:17.497Z,13.61
2022-09-28T03:57:43.823Z,13.31
2022-09-28T04:00:10.143Z,13.35
2022-09-28T04:02:36.571Z,13.28
2022-09-28T04:05:02.970Z,13.48
2022-09-28T04:07:31.200Z,13.52
2022-09-28T04:09:57.729Z,13.65
2022-09-28T04:12:24.048Z,13.57
2022-09-28T04:14:50.399Z,13.72
2022-09-28T04:17:16.730Z,13.77
2022-09-28T04:19:43.066Z,13.69
2022-09-28T04:22:09.386Z,13.66
2022-09-28T04:24:35.704Z,13.41
2022-09-28T04:27:02.047Z,13.51
2022-09-28T04:29:28.383Z,13.59
2022-09-28T04:31:54.729Z,13.69
2022-09-28T04:34:21.068Z,13.97
2022-09-28T04:36:47.377Z,13.82
2022-09-28T04:39:13.718Z,13.89
2022-09-28T04:41:40.103Z,13.84
2022-09-28T04:44:06.433Z,13.85
2022-09-28T04:46:32.753Z,13.90
2022-09-28T04:48:59.089Z,13.84
2022-09-28T04:51:25.403Z,13.97
2022-09-28T04:53:51.743Z,13.84
2022-09-28T04:56:18.077Z,13.51
2022-09-28T04:58:46.876Z,13.68
2022-09-28T05:01:15.466Z,13.75
2022-09-28T05:03:41.844Z,13.64
2022-09-28T05:06:08.172Z,13.89
2022-09-28T05:08:34.497Z,13.81
2022-09-28T05:11:00.836Z,13.63
2022-09-28T05:13:27.187Z,13.91
2022-09-28T05:15:57.460Z,13.60
2022-09-28T05:18:25.241Z,13.85
2022-09-28T05:20:51.555Z,14.11
2022-09-28T05:23:17.872Z,13.92
2022-09-28T05:25:44.326Z,13.87
2022-09-28T05:28:10.666Z,13.84
2022-09-28T05:30:37.011Z,14.05
2022-09-28T05:33:03.369Z,14.08
2022-09-28T05:35:29.735Z,14.16
2022-09-28T05:37:56.080Z,14.19
2022-09-28T05:40:22.461Z,14.09
2022-09-28T05:42:48.858Z,14.14
2022-09-28T05:45:15.175Z,14.03
2022-09-28T05:47:41.503Z,14.09
2022-09-28T05:50:07.845Z,14.27
2022-09-28T05:52:34.177Z,14.33
2022-09-28T05:55:00.516Z,14.26
2022-09-28T05:57:26.831Z,14.29
2022-09-28T05:59:53.161Z,14.18
2022-09-28T06:02:19.563Z,14.53
2022-09-28T06:04:45.926Z,14.32
2022-09-28T06:07:12.258Z,14.36
2022-09-28T06:09:38.594Z,14.46
2022-09-28T06:12:04.931Z,14.56
2022-09-28T06:14:31.277Z,14.46
2022-09-28T06:16:57.697Z,14.35
2022-09-28T06:19:24.093Z,14.57
2022-09-28T06:21:50.428Z,14.60
2022-09-28T06:24:16.913Z,14.61
2022-09-28T06:26:43.328Z,14.71
2022-09-28T06:29:09.653Z,14.50
2022-09-28T06:31:35.989Z,14.60
2022-09-28T06:34:02.326Z,14.85
2022-09-28T06:36:28.653Z,14.81
2022-09-28T06:38:54.994Z,14.87
2022-09-28T06:41:21.332Z,14.96
2022-09-28T06:43:47.658Z,15.17
2022-09-28T06:46:14.009Z,14.90
2022-09-28T06:48:40.406Z,14.95
2022-09-28T06:51:06.753Z,15.27
2022-09-28T06:53:33.080Z,15.32
2022-09-28T06:55:59.404Z,15.35
2022-09-28T06:58:25.724Z,15.21
2022-09-28T07:00:52.093Z,15.36
2022-09-28T07:03:18.498Z,15.20
2022-09-28T07:05:44.825Z,15.52
2022-09-28T07:08:11.167Z,15.53
2022-09-28T07:10:37.498Z,15.46
2022-09-28T07:13:03.837Z,15.27
2022-09-28T07:15:30.168Z,15.29
2022-09-28T07:18:02.138Z,15.44
2022-09-28T07:20:29.784Z,15.12
2022-09-28T07:22:56.732Z,15.35
2022-09-28T07:25:24.255Z,15.34
2022-09-28T07:27:50.592Z,15.16
2022-09-28T07:30:16.926Z,15.12
2022-09-28T07:32:43.243Z,15.34
2022-09-28T07:35:09.569Z,15.26
2022-09-28T07:37:35.905Z,15.19
2022-09-28T07:40:02.436Z,15.20
2022-09-28T07:42:28.756Z,15.14
2022-09-28T07:44:55.082Z,15.61
2022-09-28T07:47:21.421Z,15.48
2022-09-28T07:49:47.744Z,15.63
2022-09-28T07:52:14.075Z,15.40
2022-09-28T07:54:40.406Z,15.48
2022-09-28T07:57:06.756Z,15.47
2022-09-28T07:59:33.098Z,15.35
2022-09-28T08:01:59.511Z,15.55
2022-09-28T08:04:25.860Z,15.67
2022-09-28T08:06:52.197Z,16.00
2022-09-28T08:09:18.696Z,15.73
2022-09-28T08:11:45.132Z,15.82
2022-09-28T08:14:11.465Z,15.60
2022-09-28T08:19:09.046Z,15.77
2022-09-28T08:21:35.405Z,15.87
2022-09-28T08:24:01.730Z,16.09
2022-09-28T08:26:28.068Z,15.69
2022-09-28T08:28:54.400Z,15.91
2022-09-28T08:31:20.791Z,16.16
2022-09-28T08:33:47.211Z,16.09
2022-09-28T08:36:13.542Z,16.07
2022-09-28T08:38:39.890Z,16.32
2022-09-28T08:41:06.236Z,16.38
2022-09-28T08:43:32.566Z,16.31
2022-09-28T08:45:59.001Z,16.18
2022-09-28T08:48:25.380Z,16.49
2022-09-28T08:50:51.707Z,16.34
2022-09-28T08:53:18.046Z,16.25
2022-09-28T08:55:44.391Z,16.42
2022-09-28T08:58:10.722Z,16.52
2022-09-28T09:00:37.044Z,16.28
2022-09-28T09:03:03.408Z,16.41
2022-09-28T09:05:29.732Z,16.63
2022-09-28T09:07:56.071Z,16.43
2022-09-28T09:10:22.399Z,16.37
2022-09-28T09:12:48.756Z,16.58
2022-09-28T09:15:15.149Z,16.67
2022-09-28T09:17:41.479Z,16.65
2022-09-28T09:20:07.877Z,16.80
2022-09-28T09:22:34.223Z,16.56
2022-09-28T09:25:00.572Z,16.59
2022-09-28T09:27:26.898Z,16.76
2022-09-28T09:29:53.219Z,16.53
2022-09-28T09:32:19.555Z,16.81
2022-09-28T09:34:45.895Z,17.20
2022-09-28T09:37:12.221Z,17.20
2022-09-28T09:39:38.558Z,17.20
2022-09-28T09:42:04.882Z,17.19
2022-09-28T09:44:31.215Z,17.21
2022-09-28T09:46:57.550Z,16.95
2022-09-28T09:49:23.877Z,17.21
2022-09-28T09:51:50.217Z,17.26
2022-09-28T09:54:16.556Z,17.27
2022-09-28T09:56:42.872Z,17.43
2022-09-28T09:59:09.217Z,17.34
2022-09-28T10:01:35.585Z,17.34
2022-09-28T10:04:01.949Z,17.23
2022-09-28T10:06:28.281Z,17.24
2022-09-28T10:08:54.615Z,17.18
2022-09-28T10:11:20.942Z,17.36
2022-09-28T10:13:47.288Z,17.63
2022-09-28T10:16:13.650Z,17.66
2022-09-28T10:18:40.010Z,17.80
2022-09-28T10:21:06.352Z,17.72
2022-09-28T10:23:32.702Z,17.54
2022-09-28T10:25:59.052Z,17.59
2022-09-28T10:28:25.391Z,17.68
2022-09-28T10:30:51.835Z,17.59
2022-09-28T10:33:18.292Z,17.70
2022-09-28T10:35:44.635Z,18.00
2022-09-28T10:38:10.956Z,17.91
2022-09-28T10:40:37.305Z,18.14
2022-09-28T10:43:03.666Z,18.05
2022-09-28T10:45:29.997Z,18.14
2022-09-28T10:47:56.331Z,18.09
2022-09-28T10:50:22.654Z,18.40
2022-09-28T10:52:48.981Z,18.36
2022-09-28T10:55:15.324Z,18.48
2022-09-28T10:57:41.654Z,18.62
2022-09-28T11:00:08.004Z,18.31
2022-09-28T11:02:36.191Z,17.84
2022-09-28T11:05:02.875Z,17.87
2022-09-28T11:07:29.203Z,18.04
2022-09-28T11:09:55.533Z,17.68
2022-09-28T11:12:21.862Z,17.99
2022-09-28T11:14:48.194Z,17.94
2022-09-28T11:17:14.537Z,17.88
2022-09-28T11:19:40.863Z,17.89
2022-09-28T11:22:07.178Z,18.04
2022-09-28T11:24:33.512Z,18.08
2022-09-28T11:26:59.832Z,17.90
2022-09-28T11:29:26.162Z,17.83
2022-09-28T11:31:52.497Z,17.93
2022-09-28T11:34:18.994Z,17.85
2022-09-28T11:36:45.411Z,17.83
2022-09-28T11:39:11.732Z,17.65
2022-09-28T11:41:38.060Z,17.79
2022-09-28T11:44:04.391Z,17.71
2022-09-28T11:46:30.758Z,17.73
2022-09-28T11:48:57.128Z,17.76
2022-09-28T11:51:23.474Z,17.99
2022-09-28T11:53:49.824Z,17.99
2022-09-28T11:56:16.156Z,17.74
2022-09-28T11:58:42.487Z,17.80
2022-09-28T12:01:08.814Z,17.79
2022-09-28T12:03:35.225Z,17.89
2022-09-28T12:06:01.662Z,17.97
2022-09-28T12:08:28.001Z,17.94
2022-09-28T12:10:54.345Z,18.13
2022-09-28T12:13:20.678Z,18.34
2022-09-28T12:16:15.058Z,18.45
2022-09-28T12:18:33.345Z,18.33
2022-09-28T12:21:04.443Z,18.34
2022-09-28T12:23:31.635Z,18.51
2022-09-28T12:25:57.972Z,18.71
2022-09-28T12:28:24.292Z,18.51
2022-09-28T12:30:50.675Z,18.37
2022-09-28T12:33:17.032Z,18.39
2022-09-28T12:35:43.355Z,18.43
2022-09-28T12:38:09.697Z,18.46
2022-09-28T12:40:36.085Z,18.38
2022-09-28T12:43:02.447Z,18.53
2022-09-28T12:45:28.776Z,18.45
2022-09-28T12:47:55.097Z,18.64
2022-09-28T12:50:38.239Z,18.67
2022-09-28T12:53:05.322Z,18.73
2022-09-28T12:55:31.649Z,18.75
2022-09-28T12:57:57.992Z,18.64
2022-09-28T13:00:24.372Z,18.63
2022-09-28T13:02:50.735Z,18.82
2022-09-28T13:05:17.110Z,18.75
2022-09-28T13:07:43.443Z,18.84
2022-09-28T13:10:09.778Z,19.02
2022-09-28T13:12:36.105Z,19.01
2022-09-28T13:15:02.421Z,19.05
2022-09-28T13:17:28.751Z,18.88
2022-09-28T13:19:55.087Z,18.84
2022-09-28T13:22:21.421Z,18.86
2022-09-28T13:24:47.756Z,18.67
2022-09-28T13:27:14.093Z,19.00
2022-09-28T13:29:40.416Z,19.14
2022-09-28T13:32:06.751Z,19.19
2022-09-28T13:34:33.104Z,19.29
2022-09-28T13:36:59.450Z,19.16
2022-09-28T13:39:25.769Z,19.09
2022-09-28T13:41:52.092Z,18.78
2022-09-28T13:44:18.500Z,18.90
2022-09-28T13:46:44.877Z,18.82
2022-09-28T13:49:11.222Z,18.68
2022-09-28T13:51:37.557Z,18.20
2022-09-28T13:54:03.896Z,18.33
2022-09-28T13:56:30.224Z,18.43
2022-09-28T13:58:56.548Z,18.53
2022-09-28T14:01:22.910Z,18.23
2022-09-28T14:03:49.295Z,18.10
2022-09-28T14:08:42.859Z,18.31
2022-09-28T14:11:09.380Z,18.38
2022-09-28T14:13:35.734Z,18.30
2022-09-28T14:16:02.115Z,18.27
2022-09-28T14:18:28.487Z,18.13
2022-09-28T14:20:54.814Z,18.26
2022-09-28T14:23:21.146Z,18.14
2022-09-28T14:25:47.491Z,18.22
2022-09-28T14:28:13.838Z,18.32
2022-09-28T14:30:40.205Z,18.00
2022-09-28T14:33:06.569Z,17.67
2022-09-28T14:35:32.917Z,17.77
2022-09-28T14:37:59.231Z,17.90
2022-09-28T14:40:25.586Z,17.94
2022-09-28T14:45:18.240Z,18.27
2022-09-28T14:47:44.577Z,18.23
2022-09-28T14:50:14.572Z,18.02
2022-09-28T14:52:41.152Z,17.95
2022-09-28T14:55:07.491Z,17.91
2022-09-28T14:57:33.815Z,17.98
2022-09-28T15:00:00.175Z,17.85
2022-09-28T15:02:26.509Z,17.94
2022-09-28T15:04:53.021Z,17.95
2022-09-28T15:07:19.488Z,17.74
2022-09-28T15:09:45.818Z,17.85
2022-09-28T15:12:12.146Z,17.73
2022-09-28T15:14:38.490Z,17.52
2022-09-28T15:17:04.825Z,17.52
2022-09-28T15:19:31.157Z,17.70
2022-09-28T15:21:57.480Z,17.61
2022-09-28T15:24:23.803Z,17.43
2022-09-28T15:26:50.130Z,17.06
2022-09-28T15:29:16.459Z,17.41
2022-09-28T15:31:42.974Z,17.23
2022-09-28T15:34:09.320Z,17.27
2022-09-28T15:36:35.647Z,17.45
2022-09-28T15:39:01.969Z,17.57
2022-09-28T15:41:28.308Z,17.62
2022-09-28T15:43:54.648Z,17.67
2022-09-28T15:46:21.103Z,17.39
2022-09-28T15:48:47.513Z,17.43
2022-09-28T15:51:13.843Z,17.76
2022-09-28T15:53:40.174Z,17.96
2022-09-28T15:56:06.515Z,18.08
2022-09-28T15:58:32.861Z,18.12
2022-09-28T16:00:59.204Z,18.26
2022-09-28T16:03:25.530Z,18.20
2022-09-28T16:05:51.869Z,18.26
2022-09-28T16:08:18.213Z,18.26
2022-09-28T16:10:44.537Z,18.32
2022-09-28T16:13:10.874Z,18.31
2022-09-28T16:15:37.284Z,18.39
2022-09-28T16:18:03.685Z,18.46
2022-09-28T16:20:30.074Z,18.16
2022-09-28T16:22:56.476Z,18.07
2022-09-28T16:25:22.817Z,17.78
2022-09-28T16:27:49.173Z,17.87
2022-09-28T16:30:15.512Z,17.93
2022-09-28T16:32:41.952Z,17.77
2022-09-28T16:35:08.340Z,17.49
2022-09-28T16:37:34.674Z,17.62
2022-09-28T16:40:01.015Z,17.51
2022-09-28T16:42:27.446Z,17.68
2022-09-28T16:44:53.819Z,17.61
2022-09-28T16:47:20.157Z,17.55
2022-09-28T16:49:46.502Z,17.45
2022-09-28T16:52:12.829Z,17.83
2022-09-28T16:54:39.160Z,17.92
2022-09-28T16:57:05.488Z,17.91
2022-09-28T16:59:31.819Z,17.88
2022-09-28T17:01:58.213Z,18.02
2022-09-28T17:04:24.658Z,18.05
2022-09-28T17:06:51.018Z,18.09
2022-09-28T17:09:17.458Z,18.03
2022-09-28T17:11:43.833Z,18.11
2022-09-28T17:14:10.165Z,18.07
2022-09-28T17:17:06.168Z,18.05
2022-09-28T17:19:22.823Z,18.06
2022-09-28T17:21:49.156Z,18.07
2022-09-28T17:24:15.499Z,18.01
2022-09-28T17:26:41.827Z,17.96
2022-09-28T17:29:08.160Z,18.00
2022-09-28T17:31:34.498Z,18.07
2022-09-28T17:34:00.832Z,18.15
2022-09-28T17:36:27.162Z,18.08
2022-09-28T17:38:53.488Z,18.14
2022-09-28T17:41:20.782Z,18.18
2022-09-28T17:43:47.454Z,18.10
2022-09-28T17:46:13.798Z,18.05
2022-09-28T17:48:40.142Z,17.98
2022-09-28T17:51:06.471Z,17.80
2022-09-28T17:53:32.801Z,17.81
2022-09-28T17:55:59.134Z,17.75
2022-09-28T17:58:25.493Z,17.78
2022-09-28T18:00:51.816Z,17.68
2022-09-28T18:03:18.149Z,17.72
2022-09-28T18:05:44.492Z,17.71
2022-09-28T18:08:10.831Z,17.76
2022-09-28T18:10:37.170Z,17.72
2022-09-28T18:13:03.505Z,17.66
2022-09-28T18:15:29.876Z,17.51
2022-09-28T18:17:56.232Z,17.56
2022-09-28T18:20:22.571Z,17.51
2022-09-28T18:22:48.905Z,17.31
2022-09-28T18:25:15.230Z,17.38
2022-09-28T18:27:41.553Z,17.31
2022-09-28T18:30:07.870Z,17.31
2022-09-28T18:32:34.202Z,17.37
2022-09-28T18:35:00.539Z,17.07
2022-09-28T18:37:26.869Z,17.10
2022-09-28T18:39:53.205Z,17.11
2022-09-28T18:42:19.538Z,17.14
2022-09-28T18:44:45.870Z,17.10
2022-09-28T18:47:12.196Z,17.15
2022-09-28T18:49:38.540Z,17.06
2022-09-28T18:52:04.876Z,17.00
2022-09-28T18:54:31.213Z,16.97
2022-09-28T18:56:57.557Z,16.92
2022-09-28T18:59:24.019Z,17.06
2022-09-28T19:01:50.531Z,17.04
2022-09-28T19:04:16.898Z,17.07
2022-09-28T19:06:43.238Z,17.14
2022-09-28T19:09:09.596Z,17.07
2022-09-28T19:11:35.948Z,17.02
2022-09-28T19:14:02.276Z,16.98
2022-09-28T19:16:28.604Z,17.06
2022-09-28T19:18:54.953Z,17.11
2022-09-28T19:21:22.780Z,17.19
2022-09-28T19:23:49.941Z,17.11
2022-09-28T19:26:16.412Z,17.02
2022-09-28T19:28:42.736Z,17.07
2022-09-28T19:31:09.166Z,17.03
2022-09-28T19:33:36.745Z,16.89
2022-09-28T19:36:03.365Z,16.87
2022-09-28T19:38:29.781Z,16.90
2022-09-28T19:40:57.370Z,17.09
2022-09-28T19:43:25.319Z,16.97
2022-09-28T19:45:53.684Z,16.87
2022-09-28T19:48:20.318Z,16.95
2022-09-28T19:50:46.637Z,16.93
2022-09-28T19:53:13.907Z,17.00
2022-09-28T19:55:41.145Z,17.05
2022-09-28T19:58:07.907Z,16.81
2022-09-28T20:00:34.317Z,16.90
2022-09-28T20:03:00.752Z,16.82
2022-09-28T20:05:27.941Z,16.88
2022-09-28T20:07:54.390Z,16.91
2022-09-28T20:10:20.752Z,16.87
2022-09-28T20:12:47.037Z,16.99
2022-09-28T20:15:13.360Z,17.02
2022-09-28T20:17:39.692Z,17.14
2022-09-28T20:20:10.489Z,16.90
2022-09-28T20:22:37.187Z,17.01
2022-09-28T20:25:03.521Z,16.93
2022-09-28T20:27:31.370Z,17.01
2022-09-28T20:29:57.796Z,16.97
2022-09-28T20:32:24.137Z,17.02
2022-09-28T20:34:50.471Z,16.88
2022-09-28T20:37:16.808Z,16.55
2022-09-28T20:39:45.122Z,16.87
2022-09-28T20:42:11.641Z,16.87
2022-09-28T20:44:37.973Z,16.81
2022-09-28T20:47:04.317Z,16.76
2022-09-28T20:49:30.663Z,16.81
2022-09-28T20:51:56.995Z,16.84
2022-09-28T20:54:23.326Z,16.78
2022-09-28T20:56:49.663Z,16.82
2022-09-28T20:59:15.994Z,16.88
2022-09-28T21:01:42.372Z,16.87
2022-09-28T21:04:08.752Z,16.75
2022-09-28T21:06:35.086Z,16.66
2022-09-28T21:09:01.405Z,16.83
2022-09-28T21:11:27.745Z,16.82
2022-09-28T21:13:54.074Z,16.73
2022-09-28T21:16:20.413Z,16.77
2022-09-28T21:18:46.753Z,16.86
2022-09-28T21:21:13.078Z,16.73
2022-09-28T21:23:39.405Z,16.76
2022-09-28T21:26:05.751Z,16.78
2022-09-28T21:28:32.083Z,16.83
2022-09-28T21:30:58.437Z,16.71
2022-09-28T21:33:24.801Z,16.72
2022-09-28T21:35:51.143Z,16.80
2022-09-28T21:38:17.486Z,16.80
2022-09-28T21:40:43.926Z,16.86
2022-09-28T21:43:10.321Z,16.73
2022-09-28T21:45:36.648Z,16.79
2022-09-28T21:48:02.980Z,16.77
2022-09-28T21:50:29.322Z,16.73
2022-09-28T21:52:55.662Z,16.78
2022-09-28T21:55:21.990Z,16.86
2022-09-28T21:57:48.344Z,16.95
2022-09-28T22:00:14.675Z,16.84
2022-09-28T22:02:41.041Z,16.83
2022-09-28T22:05:07.393Z,16.86
2022-09-28T22:07:33.723Z,16.94
2022-09-28T22:10:00.051Z,17.08
2022-09-28T22:12:26.395Z,17.04
2022-09-28T22:14:52.733Z,17.08
2022-09-28T22:17:19.064Z,17.12
2022-09-28T22:19:45.398Z,16.95
2022-09-28T22:22:11.755Z,17.11
2022-09-28T22:24:38.091Z,17.03
2022-09-28T22:27:04.437Z,17.08
2022-09-28T22:29:30.776Z,17.08
2022-09-28T22:31:57.101Z,17.00
2022-09-28T22:34:23.430Z,17.11
2022-09-28T22:36:49.762Z,16.99
2022-09-28T22:39:16.098Z,17.02
2022-09-28T22:41:42.437Z,16.87
2022-09-28T22:44:08.764Z,16.92
2022-09-28T22:46:35.139Z,17.05
2022-09-28T22:49:01.619Z,17.11
2022-09-28T22:51:27.960Z,17.16
2022-09-28T22:53:54.309Z,17.18
2022-09-28T22:56:20.650Z,17.01
2022-09-28T22:58:46.991Z,17.12
2022-09-28T23:01:13.394Z,17.10
2022-09-28T23:03:39.777Z,17.03
2022-09-28T23:06:06.113Z,17.07
2022-09-28T23:08:32.462Z,17.06
2022-09-28T23:10:58.821Z,17.10
2022-09-28T23:13:25.165Z,17.05
2022-09-28T23:15:51.564Z,16.98
2022-09-28T23:18:17.899Z,17.01
2022-09-28T23:20:44.230Z,17.09
2022-09-28T23:23:10.557Z,17.13
2022-09-28T23:25:36.885Z,16.86
2022-09-28T23:28:03.234Z,17.02
2022-09-28T23:30:29.577Z,17.01
2022-09-28T23:32:55.899Z,16.87
2022-09-28T23:35:22.233Z,16.88
2022-09-28T23:37:48.566Z,16.74
2022-09-28T23:40:14.903Z,16.97
2022-09-28T23:42:41.244Z,17.06
2022-09-28T23:45:07.577Z,17.07
2022-09-28T23:47:33.901Z,16.94
2022-09-28T23:50:00.244Z,17.03
2022-09-28T23:52:26.575Z,16.90
2022-09-28T23:54:52.897Z,16.73
2022-09-28T23:57:19.225Z,16.78
2022-09-28T23:59:45.557Z,17.05
